createdAt,value
2023-06-26T00:00:51.019Z,101009.40
2023-06-26T00:03:37.885Z,101005.20
2023-06-26T00:06:04.502Z,101003.40
2023-06-26T00:08:31.135Z,101000.80
2023-06-26T00:10:57.771Z,100997.80
2023-06-26T00:13:25.126Z,100995.80
2023-06-26T00:15:52.126Z,100989.40
2023-06-26T00:18:18.871Z,100992.60
2023-06-26T00:20:45.585Z,100992.60
2023-06-26T00:23:17.165Z,100988.80
2023-06-26T00:25:44.654Z,100989.40
2023-06-26T00:28:11.403Z,100992.80
2023-06-26T00:30:38.867Z,100990.80
2023-06-26T00:33:06.249Z,100985.60
2023-06-26T00:35:33.195Z,100985.20
2023-06-26T00:37:59.800Z,100986.40
2023-06-26T00:40:27.506Z,100987.00
2023-06-26T00:42:54.485Z,100988.80
2023-06-26T00:45:30.450Z,100984.00
2023-06-26T00:48:06.594Z,100982.20
2023-06-26T00:50:34.429Z,100983.00
2023-06-26T00:53:01.954Z,100982.60
2023-06-26T00:55:30.125Z,100983.20
2023-06-26T00:57:57.000Z,100978.60
2023-06-26T01:00:23.872Z,100986.00
2023-06-26T01:02:50.730Z,100982.20
2023-06-26T01:05:21.279Z,100979.40
2023-06-26T01:07:52.983Z,100975.80
2023-06-26T01:10:20.115Z,100973.00
2023-06-26T01:12:46.910Z,100972.20
2023-06-26T01:15:13.686Z,100975.00
2023-06-26T01:17:45.424Z,100974.60
2023-06-26T01:20:17.362Z,100970.60
2023-06-26T01:23:08.171Z,100971.40
2023-06-26T01:25:55.728Z,100972.40
2023-06-26T01:28:28.899Z,100973.40
2023-06-26T01:30:56.579Z,100968.40
2023-06-26T01:33:23.259Z,100966.40
2023-06-26T01:35:50.924Z,100960.80
2023-06-26T01:38:20.966Z,100962.60
2023-06-26T01:40:47.644Z,100958.80
2023-06-26T01:43:47.623Z,100956.80
2023-06-26T01:46:26.392Z,100945.80
2023-06-26T01:49:04.392Z,100948.60
2023-06-26T01:51:41.794Z,100951.20
2023-06-26T01:54:16.842Z,100950.40
2023-06-26T01:56:46.413Z,100952.60
2023-06-26T01:59:14.586Z,100952.00
2023-06-26T02:01:41.326Z,100950.80
2023-06-26T02:04:07.913Z,100943.80
2023-06-26T02:06:34.336Z,100943.00
2023-06-26T02:09:00.977Z,100940.00
2023-06-26T02:11:27.666Z,100941.80
2023-06-26T02:13:54.125Z,100940.40
2023-06-26T02:16:20.663Z,100933.00
2023-06-26T02:18:47.266Z,100931.20
2023-06-26T02:21:13.965Z,100932.60
2023-06-26T02:23:40.510Z,100929.80
2023-06-26T02:26:07.588Z,100931.60
2023-06-26T02:28:35.211Z,100927.40
2023-06-26T02:31:02.057Z,100929.00
2023-06-26T02:33:29.048Z,100929.20
2023-06-26T02:35:55.585Z,100928.60
2023-06-26T02:38:22.093Z,100928.80
2023-06-26T02:40:48.735Z,100928.80
2023-06-26T02:43:15.338Z,100921.00
2023-06-26T02:45:41.935Z,100917.80
2023-06-26T02:48:08.433Z,100913.20
2023-06-26T02:50:35.076Z,100917.20
2023-06-26T02:53:01.869Z,100914.00
2023-06-26T02:55:29.282Z,100912.80
2023-06-26T02:57:57.993Z,100910.80
2023-06-26T03:00:30.567Z,100905.00
2023-06-26T03:02:57.672Z,100900.80
2023-06-26T03:05:24.749Z,100899.60
2023-06-26T03:07:51.349Z,100900.20
2023-06-26T03:10:17.897Z,100903.40
2023-06-26T03:12:44.475Z,100900.20
2023-06-26T03:15:11.967Z,100900.60
2023-06-26T03:17:38.584Z,100897.40
2023-06-26T03:20:07.638Z,100893.20
2023-06-26T03:22:34.609Z,100889.20
2023-06-26T03:25:03.488Z,100892.60
2023-06-26T03:27:30.056Z,100886.40
2023-06-26T03:29:56.806Z,100881.60
2023-06-26T03:32:23.389Z,100877.40
2023-06-26T03:34:50.164Z,100873.60
2023-06-26T03:37:16.716Z,100874.60
2023-06-26T03:39:43.354Z,100875.40
2023-06-26T03:42:09.859Z,100875.20
2023-06-26T03:44:36.642Z,100869.20
2023-06-26T03:47:03.812Z,100868.00
2023-06-26T03:49:30.552Z,100867.00
2023-06-26T03:51:57.134Z,100864.60
2023-06-26T03:54:23.811Z,100861.20
2023-06-26T03:56:50.497Z,100867.20
2023-06-26T03:59:17.845Z,100865.80
2023-06-26T04:01:44.439Z,100864.00
2023-06-26T04:04:11.787Z,100862.20
2023-06-26T04:06:38.335Z,100859.80
2023-06-26T04:09:05.093Z,100860.80
2023-06-26T04:11:31.761Z,100859.80
2023-06-26T04:13:58.418Z,100863.40
2023-06-26T04:16:26.256Z,100854.40
2023-06-26T04:18:53.920Z,100853.80
2023-06-26T04:21:20.613Z,100853.80
2023-06-26T04:23:48.284Z,100850.20
2023-06-26T04:26:15.611Z,100849.20
2023-06-26T04:28:43.063Z,100852.00
2023-06-26T04:31:10.048Z,100844.40
2023-06-26T04:33:40.084Z,100842.80
2023-06-26T04:36:08.467Z,100844.60
2023-06-26T04:38:35.748Z,100846.80
2023-06-26T04:41:02.586Z,100847.60
2023-06-26T04:43:29.276Z,100846.20
2023-06-26T04:45:57.163Z,100846.40
2023-06-26T04:48:24.126Z,100844.00
2023-06-26T04:50:54.381Z,100841.20
2023-06-26T04:53:23.505Z,100845.20
2023-06-26T04:55:53.652Z,100837.40
2023-06-26T04:58:20.652Z,100838.00
2023-06-26T05:00:47.569Z,100834.80
2023-06-26T05:03:17.614Z,100841.60
2023-06-26T05:05:44.899Z,100836.60
2023-06-26T05:08:27.611Z,100832.60
2023-06-26T05:10:58.309Z,100831.00
2023-06-26T05:13:26.603Z,100830.80
2023-06-26T05:15:53.515Z,100825.80
2023-06-26T05:18:20.387Z,100827.60
2023-06-26T05:20:47.629Z,100833.00
2023-06-26T05:23:16.687Z,100823.80
2023-06-26T05:25:43.597Z,100825.00
2023-06-26T05:28:12.459Z,100819.80
2023-06-26T05:30:39.566Z,100812.40
2023-06-26T05:33:08.581Z,100816.40
2023-06-26T05:35:37.538Z,100812.40
2023-06-26T05:38:04.516Z,100812.40
2023-06-26T05:40:31.444Z,100816.00
2023-06-26T05:42:58.334Z,100817.60
2023-06-26T05:45:24.902Z,100820.40
2023-06-26T05:47:51.576Z,100816.40
2023-06-26T05:50:20.336Z,100811.60
2023-06-26T05:52:47.400Z,100811.00
2023-06-26T05:55:14.538Z,100810.60
2023-06-26T05:57:42.602Z,100807.80
2023-06-26T06:00:11.157Z,100810.40
2023-06-26T06:02:39.074Z,100807.20
2023-06-26T06:05:06.828Z,100802.20
2023-06-26T06:07:35.775Z,100808.40
2023-06-26T06:10:04.509Z,100807.60
2023-06-26T06:12:31.302Z,100809.60
2023-06-26T06:14:58.105Z,100808.80
2023-06-26T06:17:24.700Z,100805.80
2023-06-26T06:19:51.464Z,100808.20
2023-06-26T06:22:18.146Z,100807.00
2023-06-26T06:24:45.070Z,100807.80
2023-06-26T06:27:11.795Z,100812.80
2023-06-26T06:29:38.326Z,100806.80
2023-06-26T06:32:05.277Z,100808.00
2023-06-26T06:34:31.930Z,100816.80
2023-06-26T06:36:58.369Z,100814.40
2023-06-26T06:39:25.394Z,100807.60
2023-06-26T06:41:52.156Z,100808.80
2023-06-26T06:44:18.947Z,100806.80
2023-06-26T06:46:45.606Z,100805.80
2023-06-26T06:49:12.214Z,100808.80
2023-06-26T06:51:38.798Z,100808.20
2023-06-26T06:54:05.470Z,100808.80
2023-06-26T06:56:32.268Z,100811.00
2023-06-26T06:58:58.833Z,100811.20
2023-06-26T07:01:25.848Z,100814.60
2023-06-26T07:03:52.702Z,100819.80
2023-06-26T07:06:19.532Z,100816.20
2023-06-26T07:08:46.080Z,100822.20
2023-06-26T07:11:12.583Z,100822.20
2023-06-26T07:13:39.237Z,100820.00
2023-06-26T07:16:09.635Z,100816.20
2023-06-26T07:18:39.642Z,100821.20
2023-06-26T07:21:06.281Z,100823.60
2023-06-26T07:23:32.757Z,100820.40
2023-06-26T07:25:59.560Z,100822.00
2023-06-26T07:28:26.611Z,100830.00
2023-06-26T07:30:53.410Z,100822.20
2023-06-26T07:33:21.445Z,100821.80
2023-06-26T07:35:48.832Z,100824.20
2023-06-26T07:38:15.577Z,100823.80
2023-06-26T07:40:42.079Z,100824.40
2023-06-26T07:43:08.625Z,100818.00
2023-06-26T07:45:35.083Z,100818.80
2023-06-26T07:48:01.653Z,100818.00
2023-06-26T07:50:28.826Z,100820.20
2023-06-26T07:52:59.256Z,100811.60
2023-06-26T07:55:27.425Z,100815.20
2023-06-26T07:57:55.759Z,100813.80
2023-06-26T08:00:22.613Z,100816.80
2023-06-26T08:02:49.290Z,100809.20
2023-06-26T08:05:16.365Z,100806.00
2023-06-26T08:07:43.233Z,100810.60
2023-06-26T08:10:13.758Z,100814.60
2023-06-26T08:12:48.415Z,100807.20
2023-06-26T08:15:15.820Z,100812.40
2023-06-26T08:17:42.420Z,100808.00
2023-06-26T08:20:09.854Z,100812.00
2023-06-26T08:22:36.742Z,100807.60
2023-06-26T08:25:06.009Z,100806.40
2023-06-26T08:27:33.395Z,100802.40
2023-06-26T08:29:59.958Z,100803.60
2023-06-26T08:32:26.645Z,100806.00
2023-06-26T08:34:53.185Z,100799.40
2023-06-26T08:37:20.500Z,100797.40
2023-06-26T08:39:47.158Z,100804.00
2023-06-26T08:42:13.608Z,100798.20
2023-06-26T08:44:52.916Z,100805.20
2023-06-26T08:47:28.019Z,100798.80
2023-06-26T08:50:16.645Z,100798.40
2023-06-26T08:53:01.493Z,100793.40
2023-06-26T08:55:29.605Z,100787.80
2023-06-26T08:57:57.086Z,100784.00
2023-06-26T09:00:24.170Z,100782.80
2023-06-26T09:02:51.321Z,100784.00
2023-06-26T09:05:18.306Z,100782.20
2023-06-26T09:07:45.922Z,100782.20
2023-06-26T09:10:12.532Z,100774.40
2023-06-26T09:12:39.378Z,100771.20
2023-06-26T09:15:07.284Z,100774.40
2023-06-26T09:17:43.182Z,100769.40
2023-06-26T09:20:10.956Z,100765.80
2023-06-26T09:22:40.944Z,100769.40
2023-06-26T09:25:09.442Z,100764.40
2023-06-26T09:27:36.961Z,100769.20
2023-06-26T09:30:04.660Z,100768.80
2023-06-26T09:32:31.421Z,100767.40
2023-06-26T09:35:00.909Z,100769.00
2023-06-26T09:37:27.625Z,100766.80
2023-06-26T09:39:54.802Z,100763.80
2023-06-26T09:42:22.258Z,100764.20
2023-06-26T09:44:49.273Z,100759.20
2023-06-26T09:47:20.146Z,100763.20
2023-06-26T09:49:46.758Z,100757.60
2023-06-26T09:52:16.934Z,100752.40
2023-06-26T09:54:47.316Z,100757.60
2023-06-26T09:57:18.912Z,100754.60
2023-06-26T09:59:45.952Z,100758.00
2023-06-26T10:02:12.793Z,100757.60
2023-06-26T10:04:39.656Z,100753.80
2023-06-26T10:07:12.040Z,100756.20
2023-06-26T10:09:43.226Z,100753.60
2023-06-26T10:12:31.606Z,100754.00
2023-06-26T10:15:01.043Z,100753.60
2023-06-26T10:17:36.756Z,100748.40
2023-06-26T10:20:10.077Z,100747.20
2023-06-26T10:22:45.250Z,100739.80
2023-06-26T10:25:16.954Z,100741.20
2023-06-26T10:27:53.506Z,100740.00
2023-06-26T10:30:28.501Z,100738.80
2023-06-26T10:32:56.718Z,100738.60
2023-06-26T10:35:25.406Z,100737.40
2023-06-26T10:37:52.089Z,100733.80
2023-06-26T10:40:26.307Z,100735.00
2023-06-26T10:43:10.486Z,100732.00
2023-06-26T10:45:44.853Z,100729.20
2023-06-26T10:48:15.888Z,100726.00
2023-06-26T10:50:48.617Z,100730.00
2023-06-26T10:53:25.721Z,100723.20
2023-06-26T10:55:59.376Z,100713.80
2023-06-26T10:58:47.389Z,100710.80
2023-06-26T11:01:22.976Z,100714.60
2023-06-26T11:04:02.879Z,100709.20
2023-06-26T11:06:31.847Z,100706.20
2023-06-26T11:09:04.716Z,100703.40
2023-06-26T11:11:53.926Z,100713.20
2023-06-26T11:14:27.528Z,100703.40
2023-06-26T11:16:58.386Z,100700.00
2023-06-26T11:19:28.763Z,100703.60
2023-06-26T11:22:05.962Z,100699.00
2023-06-26T11:24:33.782Z,100693.00
2023-06-26T11:27:03.125Z,100692.20
2023-06-26T11:29:30.911Z,100686.00
2023-06-26T11:32:05.524Z,100683.60
2023-06-26T11:34:33.662Z,100684.20
2023-06-26T11:37:01.875Z,100680.00
2023-06-26T11:39:28.555Z,100678.40
2023-06-26T11:41:55.641Z,100674.20
2023-06-26T11:44:22.743Z,100677.00
2023-06-26T11:46:54.984Z,100677.20
2023-06-26T11:49:23.728Z,100674.20
2023-06-26T11:51:50.206Z,100680.20
2023-06-26T11:54:25.857Z,100681.00
2023-06-26T11:56:57.020Z,100673.60
2023-06-26T11:59:23.680Z,100676.80
2023-06-26T12:01:53.046Z,100678.80
2023-06-26T12:04:21.230Z,100677.40
2023-06-26T12:06:57.785Z,100666.20
2023-06-26T12:09:26.926Z,100667.60
2023-06-26T12:11:56.385Z,100661.80
2023-06-26T12:14:25.696Z,100666.80
2023-06-26T12:16:53.455Z,100670.20
2023-06-26T12:19:27.225Z,100667.40
2023-06-26T12:21:56.678Z,100661.40
2023-06-26T12:24:24.840Z,100666.40
2023-06-26T12:26:57.103Z,100658.60
2023-06-26T12:29:34.243Z,100659.60
2023-06-26T12:32:01.292Z,100657.60
2023-06-26T12:34:32.862Z,100658.00
2023-06-26T12:37:09.241Z,100656.40
2023-06-26T12:39:58.022Z,100656.80
2023-06-26T12:42:28.014Z,100658.60
2023-06-26T12:44:57.016Z,100651.00
2023-06-26T12:47:29.790Z,100647.00
2023-06-26T12:49:58.079Z,100646.00
2023-06-26T12:52:24.571Z,100642.80
2023-06-26T12:54:56.530Z,100638.20
2023-06-26T12:57:23.443Z,100637.40
2023-06-26T12:59:50.187Z,100627.40
2023-06-26T13:02:18.510Z,100623.60
2023-06-26T13:04:45.843Z,100623.20
2023-06-26T13:07:12.786Z,100619.40
2023-06-26T13:09:39.359Z,100616.20
2023-06-26T13:12:07.478Z,100622.00
2023-06-26T13:14:35.713Z,100621.20
2023-06-26T13:17:03.450Z,100618.00
2023-06-26T13:19:31.800Z,100617.00
2023-06-26T13:21:58.427Z,100613.00
2023-06-26T13:24:25.333Z,100608.20
2023-06-26T13:26:52.414Z,100601.60
2023-06-26T13:29:18.929Z,100612.40
2023-06-26T13:31:45.444Z,100608.80
2023-06-26T13:34:29.542Z,100604.80
2023-06-26T13:36:57.350Z,100598.60
2023-06-26T13:39:23.851Z,100593.00
2023-06-26T13:41:50.486Z,100589.00
2023-06-26T13:44:24.011Z,100585.60
2023-06-26T13:47:02.966Z,100584.40
2023-06-26T13:49:29.632Z,100576.60
2023-06-26T13:51:56.236Z,100578.00
2023-06-26T13:54:22.771Z,100570.40
2023-06-26T13:56:49.497Z,100564.40
2023-06-26T13:59:16.308Z,100566.60
2023-06-26T14:01:44.509Z,100565.60
2023-06-26T14:04:11.022Z,100564.20
2023-06-26T14:06:37.713Z,100562.20
2023-06-26T14:09:04.613Z,100555.20
2023-06-26T14:11:32.974Z,100546.80
2023-06-26T14:13:59.533Z,100544.20
2023-06-26T14:16:26.397Z,100551.20
2023-06-26T14:18:52.850Z,100537.40
2023-06-26T14:21:19.416Z,100535.00
2023-06-26T14:23:46.039Z,100542.20
2023-06-26T14:26:12.603Z,100539.60
2023-06-26T14:28:39.754Z,100531.20
2023-06-26T14:31:06.439Z,100532.80
2023-06-26T14:33:32.973Z,100526.40
2023-06-26T14:35:59.361Z,100521.60
2023-06-26T14:38:25.745Z,100519.20
2023-06-26T14:40:52.262Z,100520.80
2023-06-26T14:43:19.334Z,100521.60
2023-06-26T14:45:47.713Z,100519.60
2023-06-26T14:48:14.680Z,100513.60
2023-06-26T14:50:41.373Z,100506.20
2023-06-26T14:53:08.345Z,100505.00
2023-06-26T14:55:34.807Z,100502.80
2023-06-26T14:58:01.496Z,100499.80
2023-06-26T15:00:28.308Z,100500.00
2023-06-26T15:02:58.192Z,100499.80
2023-06-26T15:05:25.632Z,100501.60
2023-06-26T15:07:52.261Z,100497.00
2023-06-26T15:10:18.785Z,100495.20
2023-06-26T15:12:45.286Z,100490.60
2023-06-26T15:15:12.414Z,100483.40
2023-06-26T15:17:39.247Z,100476.20
2023-06-26T15:20:06.959Z,100473.40
2023-06-26T15:22:33.550Z,100471.80
2023-06-26T15:25:02.216Z,100470.60
2023-06-26T15:27:30.428Z,100465.20
2023-06-26T15:29:56.946Z,100464.20
2023-06-26T15:32:23.598Z,100468.00
2023-06-26T15:34:50.382Z,100469.60
2023-06-26T15:37:16.966Z,100469.00
2023-06-26T15:39:43.612Z,100466.80
2023-06-26T15:42:10.386Z,100469.20
2023-06-26T15:44:36.998Z,100469.40
2023-06-26T15:47:04.454Z,100462.00
2023-06-26T15:49:31.726Z,100457.20
2023-06-26T15:52:01.234Z,100455.60
2023-06-26T15:54:27.888Z,100453.60
2023-06-26T15:56:54.597Z,100450.20
2023-06-26T15:59:21.045Z,100450.40
2023-06-26T16:01:49.273Z,100450.40
2023-06-26T16:04:16.127Z,100448.20
2023-06-26T16:06:42.608Z,100446.80
2023-06-26T16:09:09.586Z,100441.60
2023-06-26T16:11:36.188Z,100445.00
2023-06-26T16:14:02.854Z,100437.20
2023-06-26T16:16:29.343Z,100431.40
2023-06-26T16:18:55.810Z,100422.40
2023-06-26T16:21:22.361Z,100425.40
2023-06-26T16:23:48.828Z,100417.80
2023-06-26T16:26:15.424Z,100416.60
2023-06-26T16:28:41.964Z,100412.00
2023-06-26T16:31:08.567Z,100411.80
2023-06-26T16:33:35.210Z,100411.00
2023-06-26T16:36:01.850Z,100404.20
2023-06-26T16:38:28.378Z,100394.00
2023-06-26T16:40:54.896Z,100392.40
2023-06-26T16:43:21.574Z,100395.00
2023-06-26T16:45:48.015Z,100394.80
2023-06-26T16:48:14.752Z,100400.40
2023-06-26T16:50:41.658Z,100400.80
2023-06-26T16:53:08.672Z,100408.00
2023-06-26T16:55:35.137Z,100413.20
2023-06-26T16:58:02.105Z,100412.20
2023-06-26T17:00:29.182Z,100413.80
2023-06-26T17:02:56.076Z,100408.60
2023-06-26T17:05:26.728Z,100401.40
2023-06-26T17:07:53.455Z,100402.40
2023-06-26T17:10:20.255Z,100403.20
2023-06-26T17:12:46.845Z,100404.40
2023-06-26T17:15:13.388Z,100399.60
2023-06-26T17:17:40.599Z,100403.00
2023-06-26T17:20:10.087Z,100399.60
2023-06-26T17:22:39.919Z,100398.20
2023-06-26T17:25:09.022Z,100396.20
2023-06-26T17:27:35.575Z,100396.20
2023-06-26T17:30:03.445Z,100401.20
2023-06-26T17:32:30.287Z,100396.80
2023-06-26T17:34:59.209Z,100394.00
2023-06-26T17:37:29.880Z,100389.60
2023-06-26T17:39:58.130Z,100389.40
2023-06-26T17:42:29.717Z,100389.80
2023-06-26T17:45:07.490Z,100390.20
2023-06-26T17:47:37.954Z,100385.80
2023-06-26T17:50:22.668Z,100384.20
2023-06-26T17:52:54.742Z,100391.20
2023-06-26T17:55:30.336Z,100389.80
2023-06-26T17:58:03.260Z,100390.40
2023-06-26T18:00:40.641Z,100393.40
2023-06-26T18:03:10.412Z,100393.60
2023-06-26T18:05:37.608Z,100390.20
2023-06-26T18:08:05.392Z,100394.60
2023-06-26T18:10:32.549Z,100395.80
2023-06-26T18:12:59.541Z,100388.40
2023-06-26T18:15:27.504Z,100391.00
2023-06-26T18:17:54.459Z,100388.60
2023-06-26T18:20:23.741Z,100391.00
2023-06-26T18:22:52.929Z,100386.40
2023-06-26T18:25:19.397Z,100384.40
2023-06-26T18:27:46.062Z,100380.60
2023-06-26T18:30:14.928Z,100387.80
2023-06-26T18:32:44.074Z,100379.20
2023-06-26T18:35:10.749Z,100378.80
2023-06-26T18:37:40.891Z,100370.60
2023-06-26T18:40:14.191Z,100371.60
2023-06-26T18:42:44.427Z,100367.20
2023-06-26T18:45:13.406Z,100366.40
2023-06-26T18:47:42.071Z,100366.20
2023-06-26T18:50:09.319Z,100364.40
2023-06-26T18:52:35.973Z,100362.60
2023-06-26T18:55:03.117Z,100362.40
2023-06-26T18:57:31.191Z,100358.60
2023-06-26T19:00:06.487Z,100362.40
2023-06-26T19:02:34.659Z,100359.40
2023-06-26T19:05:02.764Z,100359.00
2023-06-26T19:07:29.588Z,100348.60
2023-06-26T19:09:56.381Z,100349.00
2023-06-26T19:12:26.246Z,100348.00
2023-06-26T19:14:53.534Z,100346.00
2023-06-26T19:17:21.064Z,100343.80
2023-06-26T19:19:47.650Z,100345.60
2023-06-26T19:22:20.912Z,100345.40
2023-06-26T19:25:13.968Z,100343.80
2023-06-26T19:27:58.629Z,100342.60
2023-06-26T19:30:34.508Z,100340.60
2023-06-26T19:33:01.350Z,100336.20
2023-06-26T19:35:34.240Z,100338.20
2023-06-26T19:38:05.191Z,100338.00
2023-06-26T19:40:36.540Z,100339.80
2023-06-26T19:43:04.544Z,100340.00
2023-06-26T19:45:32.199Z,100337.00
2023-06-26T19:47:58.903Z,100338.80
2023-06-26T19:50:25.827Z,100341.80
2023-06-26T19:52:52.449Z,100341.40
2023-06-26T19:55:19.194Z,100339.60
2023-06-26T19:57:48.601Z,100338.00
2023-06-26T20:00:26.043Z,100338.20
2023-06-26T20:02:55.993Z,100335.20
2023-06-26T20:05:23.432Z,100332.60
2023-06-26T20:07:49.933Z,100333.60
2023-06-26T20:10:16.507Z,100328.80
2023-06-26T20:12:43.196Z,100326.40
2023-06-26T20:15:10.607Z,100316.00
2023-06-26T20:17:37.281Z,100308.20
2023-06-26T20:20:04.508Z,100302.80
2023-06-26T20:22:31.106Z,100302.60
2023-06-26T20:24:57.711Z,100302.40
2023-06-26T20:27:24.201Z,100304.40
2023-06-26T20:29:50.727Z,100299.00
2023-06-26T20:32:18.229Z,100299.20
2023-06-26T20:34:44.830Z,100303.60
2023-06-26T20:37:11.431Z,100299.80
2023-06-26T20:39:38.520Z,100294.60
2023-06-26T20:42:05.719Z,100295.40
2023-06-26T20:44:32.674Z,100300.20
2023-06-26T20:47:09.136Z,100293.80
2023-06-26T20:49:38.231Z,100296.60
2023-06-26T20:52:11.402Z,100294.80
2023-06-26T20:54:39.868Z,100291.00
2023-06-26T20:57:09.927Z,100291.40
2023-06-26T20:59:38.918Z,100287.20
2023-06-26T21:02:06.240Z,100289.80
2023-06-26T21:04:35.567Z,100285.60
2023-06-26T21:07:07.028Z,100287.20
2023-06-26T21:09:34.277Z,100298.60
2023-06-26T21:12:03.938Z,100319.00
2023-06-26T21:14:30.583Z,100344.00
2023-06-26T21:16:57.189Z,100346.00
2023-06-26T21:19:23.860Z,100347.40
2023-06-26T21:21:50.433Z,100337.40
2023-06-26T21:24:17.019Z,100319.60
2023-06-26T21:26:43.501Z,100304.20
2023-06-26T21:29:10.108Z,100300.80
2023-06-26T21:31:36.670Z,100313.40
2023-06-26T21:34:03.612Z,100314.40
2023-06-26T21:36:30.044Z,100311.40
2023-06-26T21:38:56.492Z,100302.80
2023-06-26T21:41:23.794Z,100298.60
2023-06-26T21:43:50.443Z,100295.40
2023-06-26T21:46:17.038Z,100285.40
2023-06-26T21:48:44.209Z,100279.80
2023-06-26T21:51:10.938Z,100275.80
2023-06-26T21:53:37.625Z,100272.80
2023-06-26T21:56:04.327Z,100271.20
2023-06-26T21:58:31.214Z,100265.40
2023-06-26T22:00:57.902Z,100268.20
2023-06-26T22:03:24.361Z,100266.00
2023-06-26T22:05:50.868Z,100258.60
2023-06-26T22:08:17.415Z,100256.80
2023-06-26T22:10:44.031Z,100250.80
2023-06-26T22:13:10.502Z,100247.80
2023-06-26T22:15:37.032Z,100243.80
2023-06-26T22:18:03.768Z,100238.60
2023-06-26T22:20:30.383Z,100237.40
2023-06-26T22:22:57.038Z,100230.80
2023-06-26T22:25:24.166Z,100236.60
2023-06-26T22:27:53.106Z,100239.00
2023-06-26T22:30:23.145Z,100240.40
2023-06-26T22:32:50.219Z,100237.40
2023-06-26T22:35:17.653Z,100231.00
2023-06-26T22:37:44.690Z,100226.80
2023-06-26T22:40:14.104Z,100225.60
2023-06-26T22:42:40.946Z,100228.80
2023-06-26T22:45:11.397Z,100232.80
2023-06-26T22:47:41.611Z,100233.00
2023-06-26T22:50:08.916Z,100236.80
2023-06-26T22:52:36.185Z,100237.20
2023-06-26T22:55:03.634Z,100232.60
2023-06-26T22:57:31.254Z,100226.60
2023-06-26T22:59:57.830Z,100228.40
2023-06-26T23:02:26.908Z,100233.00
2023-06-26T23:04:53.605Z,100229.40
2023-06-26T23:07:20.861Z,100227.20
2023-06-26T23:09:48.692Z,100229.40
2023-06-26T23:12:15.369Z,100227.20
2023-06-26T23:14:41.995Z,100225.40
2023-06-26T23:17:08.796Z,100234.80
2023-06-26T23:19:37.576Z,100230.20
2023-06-26T23:22:09.861Z,100229.60
2023-06-26T23:24:38.085Z,100228.60
2023-06-26T23:27:08.535Z,100224.60
2023-06-26T23:29:37.733Z,100223.80
2023-06-26T23:32:07.947Z,100221.40
2023-06-26T23:34:39.663Z,100219.20
2023-06-26T23:37:08.483Z,100214.00
2023-06-26T23:39:44.510Z,100216.60
2023-06-26T23:42:11.479Z,100215.40
2023-06-26T23:44:38.472Z,100214.80
2023-06-26T23:47:06.194Z,100213.80
2023-06-26T23:49:35.438Z,100213.00
2023-06-26T23:52:03.788Z,100212.20
2023-06-26T23:54:31.353Z,100206.40
2023-06-26T23:56:57.906Z,100206.80
2023-06-26T23:59:24.463Z,100210.00
